Letohatchee, Alabama
Current Conditions -  °F | °C
As of 10:53 PM on Saturday 20 Dec 2014 (Local Time) from KMGM Reporting Station
Overcast Overcast  
Wind Chill: 51°   Ceiling: 3500
Heat Index: 51°   Visibility: 10mi
Dew Point: 46°   Wind: 3mph
Humidity: 83%   Direction: 20°NNE
Pressure: 30.18"   Gusts: NA
Location:  32.13°N, 86.49°W
Report Text: KMGM 210453Z AUTO 02003KT 10SM OVC035 11/08 A3018 RMK AO2 SLP219 T01060078
Loading
Personal Weather Stations






























Interactive Weather Map New forecast layout! Learn more

10-Day Weather Forecast

Advertisements
Track Severe Weather on mobile